Wells Town, Mississippi
Current Conditions -  °F | °C
As of 10:53 AM on Wednesday 26 Nov 2014 (Local Time) from KHBG Reporting Station
Clear Clear  
Wind Chill: 57°   Ceiling: Unl
Heat Index: 57°   Visibility: 10mi
Dew Point: 26°   Wind: 8mph
Humidity: 30%   Direction: 220°SW
Pressure: 30.24"   Gusts: NA
Location:  31.0601°N, 89.4815°W
Report Text: KHBG 261653Z AUTO 22007KT 10SM CLR 14/M03 A3024 RMK AO2 SLP240 T01391033
Loading
Personal Weather Stations






























Interactive Weather Map New forecast layout! Learn more

10-Day Weather Forecast

Advertisements
Track Severe Weather on mobile